Time;durP1;ratioP1;P1;durP2;ratioP2;P2;SDS_P1;SDS_P2;PMS_P1;PMS_P2;Temp;Humidity;BMP_temperature;BMP_pressure;BME280_temperature;BME280_humidity;BME280_pressure;Samples;Min_cycle;Max_cycle;Signal;HPM_P1;HPM_P2
2023/08/02 00:04:52;;;;;;;6.18;2.67;;;;;;;15.27;72.40;99095.75;10109613;29;20638;-76
2023/08/02 00:09:55;;;;;;;6.15;2.83;;;;;;;15.15;72.90;99092.66;10112375;29;20060;-75
2023/08/02 00:15:00;;;;;;;6.55;2.67;;;;;;;15.31;72.39;99086.25;10116584;29;20052;-76
2023/08/02 00:20:03;;;;;;;6.88;2.63;;;;;;;15.20;71.94;99086.72;10114405;29;20456;-76
2023/08/02 00:25:07;;;;;;;10.45;2.80;;;;;;;15.02;73.08;99084.34;10113770;29;20108;-76
2023/08/02 00:30:12;;;;;;;8.60;2.72;;;;;;;15.15;72.59;99083.72;10121477;29;20075;-76
2023/08/02 00:35:15;;;;;;;11.95;3.10;;;;;;;15.17;72.83;99089.78;10113310;29;21170;-76
2023/08/02 00:40:18;;;;;;;7.35;2.53;;;;;;;15.18;71.95;99073.38;10119037;29;20044;-74
2023/08/02 00:45:22;;;;;;;7.22;2.58;;;;;;;15.00;72.60;99067.47;10115683;29;20076;-75
2023/08/02 00:50:27;;;;;;;7.78;2.70;;;;;;;14.93;72.84;99064.69;10107219;29;20124;-76
2023/08/02 00:55:30;;;;;;;10.30;3.28;;;;;;;14.79;73.41;99066.34;10110162;29;20055;-75
2023/08/02 01:00:35;;;;;;;9.20;3.08;;;;;;;14.77;73.73;99057.56;10135828;29;20127;-77
2023/08/02 01:06:01;;;;;;;9.30;2.50;;;;;;;14.69;73.88;99054.09;10115865;29;20157;-76
2023/08/02 01:11:14;;;;;;;8.27;2.80;;;;;;;14.54;74.43;99056.78;10109262;29;20788;-77
2023/08/02 01:16:20;;;;;;;5.30;2.77;;;;;;;14.33;75.36;99049.31;10109829;29;20062;-76
2023/08/02 01:21:24;;;;;;;7.75;2.90;;;;;;;14.36;75.30;99063.28;10112860;29;20829;-77
2023/08/02 01:26:32;;;;;;;12.48;3.50;;;;;;;14.38;75.24;99047.78;10115916;29;20187;-76
2023/08/02 01:31:37;;;;;;;5.88;2.45;;;;;;;14.33;75.65;99046.63;10113316;29;20112;-76
2023/08/02 01:36:42;;;;;;;5.70;2.67;;;;;;;14.18;76.00;99033.06;10109057;29;20068;-77
2023/08/02 01:41:46;;;;;;;4.85;2.47;;;;;;;14.28;75.55;99030.94;10111163;29;20524;-77
2023/08/02 01:46:48;;;;;;;9.10;2.58;;;;;;;14.05;76.47;99030.13;10108791;29;20055;-76
2023/08/02 01:51:54;;;;;;;6.75;2.40;;;;;;;14.19;76.09;99031.22;10104789;29;20052;-76
2023/08/02 01:56:57;;;;;;;7.85;3.55;;;;;;;14.22;75.87;99038.94;10098923;29;20044;-74
2023/08/02 02:02:00;;;;;;;8.18;2.58;;;;;;;14.28;75.93;99035.50;10111235;29;20060;-76
2023/08/02 02:07:04;;;;;;;8.30;2.65;;;;;;;14.38;75.51;99033.41;10111327;29;20056;-76
2023/08/02 02:12:08;;;;;;;5.60;2.80;;;;;;;14.33;75.63;99028.53;10111147;29;20055;-76
2023/08/02 02:17:11;;;;;;;5.60;3.15;;;;;;;14.32;75.90;99021.47;10118133;29;20132;-77
2023/08/02 02:22:16;;;;;;;7.03;2.33;;;;;;;14.41;75.65;99024.97;10107522;29;22205;-77
2023/08/02 02:27:20;;;;;;;7.63;2.60;;;;;;;14.42;75.64;99029.34;10110060;29;20040;-77
2023/08/02 02:32:24;;;;;;;6.38;2.92;;;;;;;14.36;75.57;99022.78;10117561;29;20127;-77
2023/08/02 02:37:28;;;;;;;6.63;2.45;;;;;;;14.32;75.96;99026.03;10107448;29;20044;-77
2023/08/02 02:42:33;;;;;;;8.27;2.78;;;;;;;14.29;76.08;99021.84;10105405;29;20049;-77
2023/08/02 02:47:37;;;;;;;11.82;2.97;;;;;;;14.31;76.33;99011.66;10114126;29;20059;-76
2023/08/02 02:52:41;;;;;;;8.80;3.30;;;;;;;14.28;76.89;99005.81;10124828;29;20060;-77
2023/08/02 02:57:44;;;;;;;11.15;3.60;;;;;;;14.28;77.01;99000.41;10102006;29;20053;-77
2023/08/02 03:02:47;;;;;;;7.85;3.30;;;;;;;14.41;76.56;98989.03;10110584;29;20059;-77
2023/08/02 03:07:52;;;;;;;9.77;3.33;;;;;;;14.31;77.31;98997.34;10113419;29;20071;-77
2023/08/02 03:12:55;;;;;;;6.65;3.47;;;;;;;14.35;77.08;98985.16;10115797;29;20061;-76
2023/08/02 03:17:58;;;;;;;7.38;3.72;;;;;;;14.25;77.64;98981.88;10118707;29;20048;-77
2023/08/02 03:23:02;;;;;;;9.50;3.70;;;;;;;14.30;77.33;98969.50;10116316;29;20068;-77
2023/08/02 03:28:05;;;;;;;7.60;3.50;;;;;;;14.16;77.82;98962.19;10114213;29;20102;-76
2023/08/02 03:33:08;;;;;;;4.72;4.00;;;;;;;14.16;78.12;98962.19;10118550;29;20059;-77
2023/08/02 03:38:12;;;;;;;8.52;3.78;;;;;;;14.00;78.38;98954.22;10118652;29;20060;-76
2023/08/02 03:43:15;;;;;;;6.18;3.83;;;;;;;14.05;78.29;98932.94;10113820;29;20052;-77
2023/08/02 03:48:18;;;;;;;7.25;4.25;;;;;;;13.98;78.77;98916.63;10108466;29;20575;-76
2023/08/02 03:53:22;;;;;;;10.98;4.20;;;;;;;13.97;78.52;98909.53;10117497;29;20480;-76
2023/08/02 03:58:25;;;;;;;6.18;4.22;;;;;;;13.99;78.64;98933.63;10119628;29;20067;-76
2023/08/02 04:03:28;;;;;;;4.18;3.53;;;;;;;13.79;79.23;98927.91;10112442;29;20064;-76
2023/08/02 04:08:32;;;;;;;9.68;4.15;;;;;;;14.02;78.71;98914.41;10114694;29;20062;-75
2023/08/02 04:13:35;;;;;;;4.35;3.92;;;;;;;14.10;78.61;98893.56;10115428;29;20052;-76
2023/08/02 04:18:38;;;;;;;9.00;4.53;;;;;;;14.05;78.66;98887.03;10112809;29;20048;-76
2023/08/02 04:23:42;;;;;;;9.93;4.28;;;;;;;14.08;78.52;98868.59;10117279;29;20059;-76
2023/08/02 04:28:46;;;;;;;6.85;4.78;;;;;;;14.14;78.25;98870.56;10116905;29;20508;-76
2023/08/02 04:33:49;;;;;;;9.10;4.53;;;;;;;14.06;78.81;98861.72;10117015;29;20110;-76
2023/08/02 04:38:53;;;;;;;5.22;4.03;;;;;;;14.14;78.43;98869.72;10114135;29;21213;-75
2023/08/02 04:43:56;;;;;;;9.45;3.90;;;;;;;14.26;78.13;98857.47;10111137;29;20045;-76
2023/08/02 04:48:59;;;;;;;6.43;3.30;;;;;;;14.41;77.28;98867.47;10111771;29;20049;-76
2023/08/02 04:54:04;;;;;;;9.23;3.90;;;;;;;14.46;77.15;98859.66;10103708;29;20059;-76
2023/08/02 04:59:10;;;;;;;5.10;3.28;;;;;;;14.45;77.10;98856.06;10103877;29;20086;-76
2023/08/02 05:04:13;;;;;;;7.07;3.20;;;;;;;14.48;77.45;98855.75;10109855;29;20099;-76
2023/08/02 05:09:17;;;;;;;10.80;3.83;;;;;;;14.75;76.81;98845.25;10113100;29;20088;-76
2023/08/02 05:14:20;;;;;;;6.93;3.30;;;;;;;15.02;75.65;98832.91;10113986;29;20095;-75
2023/08/02 05:19:23;;;;;;;8.55;3.28;;;;;;;15.12;75.15;98844.25;10117487;29;20640;-76
2023/08/02 05:24:27;;;;;;;7.25;3.00;;;;;;;15.24;74.35;98826.47;10118122;29;20056;-77
2023/08/02 05:29:30;;;;;;;7.38;3.00;;;;;;;15.46;73.49;98816.53;10113614;29;20061;-76
2023/08/02 05:34:33;;;;;;;7.82;2.75;;;;;;;15.45;73.84;98824.84;10115136;29;20056;-76
2023/08/02 05:39:37;;;;;;;5.22;2.33;;;;;;;15.43;74.31;98803.38;10111426;29;20524;-76
2023/08/02 05:44:40;;;;;;;4.43;2.70;;;;;;;15.65;73.67;98790.66;10106789;29;20496;-75
2023/08/02 05:49:43;;;;;;;4.43;2.15;;;;;;;16.05;72.43;98779.31;10113598;29;20048;-76
2023/08/02 05:54:47;;;;;;;6.03;2.45;;;;;;;16.17;71.29;98769.56;10112427;29;20048;-76
2023/08/02 05:59:50;;;;;;;3.10;1.80;;;;;;;16.00;71.66;98750.09;10109901;29;20131;-76
2023/08/02 06:04:53;;;;;;;3.67;1.50;;;;;;;16.09;71.44;98751.59;10112936;29;20807;-75
2023/08/02 06:09:57;;;;;;;6.93;2.00;;;;;;;16.35;71.20;98734.69;10121747;29;20044;-77
2023/08/02 06:15:00;;;;;;;3.90;1.85;;;;;;;16.49;70.76;98732.03;10115603;29;20067;-77
2023/08/02 06:20:03;;;;;;;7.85;2.15;;;;;;;16.65;69.54;98728.97;10115191;29;20044;-77
2023/08/02 06:25:09;;;;;;;4.15;1.85;;;;;;;16.75;69.18;98748.38;10121076;29;20079;-77
2023/08/02 06:30:12;;;;;;;3.05;2.00;;;;;;;16.84;69.51;98719.22;10125090;29;20056;-76
2023/08/02 06:35:15;;;;;;;4.25;1.58;;;;;;;16.88;68.72;98714.22;10122461;29;20079;-76
2023/08/02 06:40:19;;;;;;;4.65;1.90;;;;;;;16.99;68.68;98702.75;10131080;29;20049;-76
2023/08/02 06:45:22;;;;;;;5.68;2.13;;;;;;;17.29;67.35;98694.25;10123267;29;20055;-77
2023/08/02 06:50:25;;;;;;;3.70;1.80;;;;;;;17.28;67.38;98696.13;10114790;29;20052;-78
2023/08/02 06:55:29;;;;;;;3.50;1.40;;;;;;;17.52;66.49;98688.38;10129334;29;20163;-77
2023/08/02 07:00:33;;;;;;;2.90;1.73;;;;;;;17.63;66.23;98674.16;10112166;29;20075;-77
2023/08/02 07:05:36;;;;;;;3.85;1.70;;;;;;;17.54;66.27;98665.41;10115612;29;20060;-76
2023/08/02 07:10:40;;;;;;;2.38;1.40;;;;;;;17.85;64.77;98659.31;10123141;29;20053;-77
2023/08/02 07:15:43;;;;;;;2.70;1.33;;;;;;;18.17;63.78;98651.25;10124779;29;20485;-77
2023/08/02 07:20:46;;;;;;;3.67;2.08;;;;;;;18.40;63.06;98633.59;10127427;29;20657;-77
2023/08/02 07:25:50;;;;;;;2.67;1.10;;;;;;;18.66;62.85;98622.56;10128378;29;20496;-77
2023/08/02 07:31:06;;;;;;;4.95;1.70;;;;;;;18.65;62.28;98626.34;10124535;29;20090;-77
2023/08/02 07:36:14;;;;;;;3.33;1.63;;;;;;;18.31;62.74;98614.81;10122759;29;20048;-76
2023/08/02 07:41:18;;;;;;;4.72;1.95;;;;;;;18.48;61.69;98608.88;10120960;29;20048;-77
2023/08/02 07:46:24;;;;;;;4.00;1.90;;;;;;;18.60;62.34;98588.09;10120521;29;20583;-77
2023/08/02 07:51:27;;;;;;;3.72;1.90;;;;;;;18.13;62.69;98572.09;10138696;29;20059;-75
2023/08/02 07:56:31;;;;;;;2.97;1.45;;;;;;;17.93;63.28;98582.16;10134816;29;20052;-76
2023/08/02 08:01:34;;;;;;;4.75;1.80;;;;;;;17.69;64.85;98578.31;10130691;29;20063;-77
2023/08/02 08:06:37;;;;;;;2.45;1.77;;;;;;;17.73;65.36;98562.44;10130364;29;20158;-76
2023/08/02 08:11:42;;;;;;;6.65;1.95;;;;;;;17.61;66.01;98554.13;10125361;29;20097;-77
2023/08/02 08:16:45;;;;;;;5.75;2.20;;;;;;;17.36;71.30;98548.53;10122285;29;20119;-77
2023/08/02 08:21:48;;;;;;;2.83;2.10;;;;;;;16.69;78.24;98526.09;10117656;29;20058;-76
2023/08/02 08:26:52;;;;;;;5.07;2.10;;;;;;;16.24;82.28;98523.97;10114509;29;20048;-76
2023/08/02 08:31:55;;;;;;;3.63;2.00;;;;;;;15.76;81.87;98515.09;10121631;29;20108;-76
2023/08/02 08:36:58;;;;;;;5.85;3.20;;;;;;;15.97;84.93;98503.28;10124021;29;20063;-76
2023/08/02 08:42:07;;;;;;;3.88;1.92;;;;;;;16.25;83.87;98489.56;10119519;29;20067;-76
2023/08/02 08:47:11;;;;;;;6.85;2.67;;;;;;;16.36;83.29;98483.56;10112441;29;20186;-76
2023/08/02 08:52:15;;;;;;;4.38;2.47;;;;;;;16.39;84.37;98461.47;10108048;29;20048;-76
2023/08/02 08:57:20;;;;;;;2.65;2.45;;;;;;;16.28;84.35;98445.84;10114581;29;20059;-74
2023/08/02 09:02:23;;;;;;;4.38;2.38;;;;;;;16.03;84.85;98451.84;10115725;29;20500;-77
2023/08/02 09:07:26;;;;;;;3.72;2.80;;;;;;;16.07;85.63;98430.59;10118762;29;20188;-76
2023/08/02 09:12:43;;;;;;;5.32;3.17;;;;;;;16.17;86.01;98417.47;10116582;29;20416;-76
2023/08/02 09:17:49;;;;;;;4.78;3.55;;;;;;;16.37;86.29;98403.94;10115785;29;20055;-76
2023/08/02 09:22:52;;;;;;;5.18;4.00;;;;;;;16.15;86.64;98390.63;10114848;29;20083;-77
2023/08/02 09:27:59;;;;;;;8.30;3.70;;;;;;;16.22;87.08;98376.22;10127901;29;20050;-77
2023/08/02 09:33:03;;;;;;;6.07;3.55;;;;;;;16.09;87.62;98375.19;10126192;29;20059;-77
2023/08/02 09:38:10;;;;;;;5.97;3.53;;;;;;;16.08;87.46;98364.56;10129885;29;20067;-78
2023/08/02 09:43:15;;;;;;;5.82;3.45;;;;;;;16.09;87.82;98363.53;10138156;29;20104;-77
2023/08/02 09:48:18;;;;;;;5.10;3.75;;;;;;;16.26;87.93;98345.81;10127345;29;20052;-78
2023/08/02 09:53:23;;;;;;;8.27;4.38;;;;;;;16.20;87.84;98330.38;10130274;29;20079;-75
2023/08/02 09:58:30;;;;;;;4.22;3.83;;;;;;;16.08;87.93;98318.53;10137660;29;20044;-77
2023/08/02 10:03:33;;;;;;;7.18;4.22;;;;;;;16.05;87.68;98324.38;10135006;29;20056;-75
2023/08/02 10:08:40;;;;;;;7.07;4.60;;;;;;;16.08;88.10;98313.94;10146220;29;20439;-77
2023/08/02 10:13:46;;;;;;;4.80;4.38;;;;;;;16.10;88.32;98306.47;10147338;29;20072;-77
2023/08/02 10:18:52;;;;;;;5.60;4.00;;;;;;;16.23;88.65;98291.22;10146494;29;20063;-76
2023/08/02 10:23:55;;;;;;;5.65;4.32;;;;;;;16.02;89.33;98263.34;10164620;29;20687;-76
2023/08/02 10:29:02;;;;;;;6.43;4.00;;;;;;;16.24;89.41;98253.09;10171371;29;20198;-77
2023/08/02 10:34:44;;;;;;;3.58;3.28;;;;;;;15.93;90.58;98256.47;10166899;29;20066;-77
2023/08/02 10:39:54;;;;;;;4.38;3.55;;;;;;;15.83;92.09;98253.38;10167718;29;20056;-77
2023/08/02 10:45:17;;;;;;;4.63;4.20;;;;;;;15.99;93.34;98244.81;10164498;29;20052;-78
2023/08/02 10:50:48;;;;;;;3.67;3.25;;;;;;;15.86;92.84;98226.72;10162008;29;20044;-76
2023/08/02 10:56:12;;;;;;;5.00;3.35;;;;;;;16.32;92.16;98206.00;10164026;29;20063;-77
2023/08/02 11:01:17;;;;;;;4.72;3.10;;;;;;;16.69;92.99;98177.25;10161726;29;20109;-77
2023/08/02 11:06:29;;;;;;;3.75;3.10;;;;;;;16.85;91.17;98177.81;10139743;29;20377;-77
2023/08/02 11:11:38;;;;;;;3.83;2.42;;;;;;;16.69;89.90;98152.03;10166095;29;20104;-77
2023/08/02 11:16:43;;;;;;;3.00;2.50;;;;;;;17.03;89.85;98135.34;10163144;29;20058;-78
2023/08/02 11:21:59;;;;;;;2.17;1.80;;;;;;;17.24;88.40;98136.00;10142267;29;20073;-79
2023/08/02 11:27:02;;;;;;;3.47;1.58;;;;;;;17.75;86.22;98124.03;10132547;29;20057;-78
2023/08/02 11:32:11;;;;;;;1.17;1.00;;;;;;;17.70;83.94;98091.31;10136964;29;20048;-79
2023/08/02 11:37:15;;;;;;;6.22;1.17;;;;;;;18.10;83.15;98094.41;10132075;29;20601;-78
2023/08/02 11:42:18;;;;;;;0.75;0.70;;;;;;;17.97;81.67;98091.84;10123849;29;20139;-79
2023/08/02 11:47:22;;;;;;;0.50;0.50;;;;;;;17.83;81.49;98095.75;10141306;29;20059;-79
2023/08/02 11:52:27;;;;;;;0.57;0.38;;;;;;;17.65;81.36;98077.56;10127744;29;20124;-77
2023/08/02 11:57:30;;;;;;;0.30;0.30;;;;;;;17.75;81.63;98082.50;10132769;29;20055;-78
2023/08/02 12:02:35;;;;;;;0.32;0.32;;;;;;;17.68;82.56;98075.22;10133810;29;20179;-78
2023/08/02 12:07:37;;;;;;;0.60;0.60;;;;;;;17.80;84.40;98075.31;10135293;29;20057;-77
2023/08/02 12:12:40;;;;;;;0.85;0.40;;;;;;;17.77;85.58;98078.50;10132813;29;20051;-78
2023/08/02 12:17:45;;;;;;;1.15;0.40;;;;;;;17.77;86.77;98078.50;10130851;29;20143;-78
2023/08/02 12:22:49;;;;;;;0.40;0.40;;;;;;;17.60;87.58;98072.81;10129307;29;20056;-78
2023/08/02 12:28:05;;;;;;;2.13;0.60;;;;;;;17.33;90.76;98071.44;10131758;29;20052;-76
2023/08/02 12:33:10;;;;;;;0.40;0.40;;;;;;;16.86;93.88;98073.72;10134413;29;20055;-78
2023/08/02 12:38:12;;;;;;;0.57;0.47;;;;;;;16.94;93.83;98090.53;10122300;29;20052;-77
2023/08/02 12:43:16;;;;;;;0.45;0.45;;;;;;;17.37;95.52;98068.06;10118163;29;20127;-78
2023/08/02 12:48:20;;;;;;;1.60;0.77;;;;;;;17.78;94.49;98073.91;10115920;29;20067;-77
2023/08/02 12:53:23;;;;;;;1.95;0.70;;;;;;;19.29;98.02;98046.59;10126658;29;20071;-77
2023/08/02 12:58:26;;;;;;;0.75;0.40;;;;;;;19.89;91.99;98035.38;10125613;29;20048;-78
2023/08/02 13:03:31;;;;;;;0.77;0.40;;;;;;;20.52;84.58;98020.78;10131023;29;20075;-78
2023/08/02 13:08:35;;;;;;;2.55;0.30;;;;;;;20.87;80.09;98022.44;10132009;29;20039;-76
2023/08/02 13:13:37;;;;;;;0.40;0.10;;;;;;;20.07;79.08;97991.56;10157942;29;20048;-78
2023/08/02 13:18:42;;;;;;;0.45;0.20;;;;;;;19.95;82.24;97960.03;10138911;29;20056;-78
2023/08/02 13:23:45;;;;;;;1.45;0.13;;;;;;;21.01;77.55;97976.53;10129414;29;20068;-77
2023/08/02 13:28:47;;;;;;;0.10;0.10;;;;;;;21.35;73.37;97968.31;10133471;29;20060;-79
2023/08/02 13:33:52;;;;;;;0.20;0.20;;;;;;;20.78;78.60;97983.00;10121732;29;20055;-77
2023/08/02 13:38:55;;;;;;;1.58;0.10;;;;;;;20.71;77.08;97983.19;10130787;29;20423;-78
2023/08/02 13:43:58;;;;;;;0.98;0.15;;;;;;;20.33;77.68;97970.28;10137629;29;20051;-78
2023/08/02 13:49:02;;;;;;;0.10;0.10;;;;;;;20.03;79.63;97982.25;10136138;29;20067;-79
2023/08/02 13:54:05;;;;;;;0.30;0.30;;;;;;;19.87;80.79;97972.94;10126472;29;20062;-78
2023/08/02 13:59:08;;;;;;;0.30;0.20;;;;;;;19.77;83.58;97940.06;10129666;29;20179;-79
2023/08/02 14:04:12;;;;;;;1.67;0.28;;;;;;;19.51;85.21;97925.13;10129290;29;20048;-79
2023/08/02 14:09:15;;;;;;;0.65;0.30;;;;;;;19.21;86.52;97917.97;10131694;29;20440;-79
2023/08/02 14:14:18;;;;;;;3.40;0.50;;;;;;;18.55;90.78;97913.75;10127161;29;20524;-78
2023/08/02 14:19:22;;;;;;;4.28;0.90;;;;;;;18.19;94.16;97922.94;10118156;29;20051;-78
2023/08/02 14:24:25;;;;;;;3.25;0.45;;;;;;;17.99;95.73;97939.53;10128517;29;20058;-78
2023/08/02 14:29:28;;;;;;;189.45;11.13;;;;;;;17.50;100.00;97936.84;10120923;29;20055;-75
2023/08/02 14:34:32;;;;;;;20.00;1.85;;;;;;;17.45;100.00;97931.28;10117819;29;20063;-75
2023/08/02 14:39:35;;;;;;;83.13;4.72;;;;;;;17.48;100.00;97931.63;10111663;29;20052;-75
2023/08/02 14:44:38;;;;;;;19.92;1.65;;;;;;;16.72;100.00;98026.91;10121721;29;20048;-77
2023/08/02 14:49:42;;;;;;;10.95;1.40;;;;;;;16.91;100.00;97968.16;10117250;29;20523;-77
2023/08/02 14:54:45;;;;;;;0.30;0.30;;;;;;;16.13;100.00;97926.09;10134545;29;20055;-78
2023/08/02 14:59:49;;;;;;;1.30;0.70;;;;;;;15.49;100.00;97925.22;10149679;29;20123;-78
2023/08/02 15:04:54;;;;;;;0.55;0.43;;;;;;;15.74;100.00;97965.88;10148170;29;20052;-77
2023/08/02 15:09:57;;;;;;;4.40;0.80;;;;;;;15.66;100.00;97944.47;10130798;29;20060;-78
2023/08/02 15:15:00;;;;;;;1.50;0.90;;;;;;;15.62;100.00;97908.09;10128508;29;20324;-78
2023/08/02 15:20:05;;;;;;;1.40;0.88;;;;;;;15.58;100.00;97917.72;10131171;29;20061;-78
2023/08/02 15:25:17;;;;;;;1.25;1.15;;;;;;;15.73;100.00;97906.56;10135414;29;20066;-78
2023/08/02 15:30:27;;;;;;;1.58;1.45;;;;;;;15.83;100.00;97939.41;10129813;29;20090;-76
2023/08/02 15:35:33;;;;;;;2.88;1.40;;;;;;;15.48;100.00;97901.94;10119693;29;20048;-76
2023/08/02 15:40:36;;;;;;;2.92;1.80;;;;;;;16.17;100.00;97899.41;10124598;29;20056;-76
2023/08/02 15:45:39;;;;;;;3.63;1.40;;;;;;;16.68;100.00;97906.47;10131768;29;20053;-76
2023/08/02 15:50:44;;;;;;;2.83;1.63;;;;;;;17.39;100.00;97910.50;10130409;29;20130;-76
2023/08/02 15:55:47;;;;;;;2.47;1.50;;;;;;;17.34;100.00;97922.03;10136005;29;20107;-76
2023/08/02 16:00:50;;;;;;;3.10;1.80;;;;;;;17.58;100.00;97913.97;10141528;29;21071;-76
2023/08/02 16:05:57;;;;;;;2.25;1.85;;;;;;;18.16;100.00;97907.94;10144429;29;20048;-77
2023/08/02 16:11:01;;;;;;;3.35;1.77;;;;;;;18.96;100.00;97901.13;10144522;29;20067;-76
2023/08/02 16:16:04;;;;;;;4.20;1.70;;;;;;;19.10;100.00;97899.78;10142209;29;20072;-75
2023/08/02 16:21:09;;;;;;;4.85;1.85;;;;;;;18.61;98.02;97912.81;10143306;29;20051;-76
2023/08/02 16:26:13;;;;;;;2.55;1.85;;;;;;;19.97;100.00;97912.41;10129814;29;20055;-78
2023/08/02 16:31:16;;;;;;;3.03;1.88;;;;;;;20.76;100.00;97897.84;10120259;29;20049;-77
2023/08/02 16:36:25;;;;;;;2.83;1.60;;;;;;;20.69;97.59;97902.69;10136857;29;20051;-78
2023/08/02 16:41:29;;;;;;;4.30;1.35;;;;;;;21.03;97.61;97903.41;10126592;29;20056;-77
2023/08/02 16:46:31;;;;;;;4.25;1.38;;;;;;;21.25;94.50;97899.91;10124002;29;20131;-78
2023/08/02 16:51:36;;;;;;;5.00;1.20;;;;;;;21.79;91.26;97898.09;10121460;29;20048;-77
2023/08/02 16:56:39;;;;;;;4.07;1.48;;;;;;;20.74;85.80;97917.22;10130119;29;20239;-77
2023/08/02 17:01:42;;;;;;;3.38;1.48;;;;;;;19.52;88.53;97920.50;10139555;29;20052;-76
2023/08/02 17:06:47;;;;;;;3.90;1.70;;;;;;;19.36;89.22;97941.97;10127451;29;20051;-76
2023/08/02 17:11:50;;;;;;;4.80;2.20;;;;;;;18.94;87.70;97933.16;10124511;29;20052;-76
2023/08/02 17:16:53;;;;;;;3.35;2.08;;;;;;;19.13;86.33;97942.84;10127950;29;20047;-76
2023/08/02 17:22:00;;;;;;;4.28;1.73;;;;;;;19.06;85.44;97944.03;10129054;29;20055;-77
2023/08/02 17:27:03;;;;;;;4.43;1.75;;;;;;;18.68;86.38;97953.50;10123270;29;20059;-76
2023/08/02 17:32:07;;;;;;;6.38;2.60;;;;;;;18.07;89.82;97969.94;10120894;29;20086;-77
2023/08/02 17:37:11;;;;;;;4.53;2.38;;;;;;;17.61;92.40;97954.25;10120561;29;20052;-76
2023/08/02 17:42:14;;;;;;;6.25;2.70;;;;;;;17.22;95.26;97940.09;10123606;29;20063;-77
2023/08/02 17:47:17;;;;;;;5.35;2.50;;;;;;;17.16;95.57;97930.16;10124802;29;20044;-76
2023/08/02 17:52:22;;;;;;;8.55;3.90;;;;;;;17.18;95.06;97931.59;10134877;29;20530;-75
2023/08/02 17:57:24;;;;;;;6.50;2.67;;;;;;;17.14;94.70;97929.56;10134120;29;20523;-75
2023/08/02 18:02:28;;;;;;;5.60;2.70;;;;;;;19.01;98.57;97904.78;10127303;29;20052;-75
2023/08/02 18:07:32;;;;;;;6.30;2.28;;;;;;;19.27;97.28;97899.03;10127513;29;20052;-75
2023/08/02 18:12:35;;;;;;;9.70;2.70;;;;;;;18.36;95.33;97929.34;10127496;29;20050;-75
2023/08/02 18:17:38;;;;;;;5.38;3.60;;;;;;;17.82;95.54;97947.47;10134068;29;20047;-75
2023/08/02 18:22:42;;;;;;;7.88;3.40;;;;;;;17.55;95.97;97952.44;10136833;29;20135;-77
2023/08/02 18:27:45;;;;;;;6.88;3.30;;;;;;;17.35;96.33;97975.22;10132345;29;20048;-76
2023/08/02 18:32:48;;;;;;;7.13;3.20;;;;;;;17.12;95.68;97977.75;10123253;29;20059;-76
2023/08/02 18:37:53;;;;;;;7.90;3.28;;;;;;;16.73;94.22;97987.91;10124971;29;20048;-76
2023/08/02 18:42:55;;;;;;;7.68;3.20;;;;;;;16.74;92.50;98009.38;10119944;29;20052;-76
2023/08/02 18:47:58;;;;;;;7.00;3.95;;;;;;;16.72;92.45;98016.09;10124174;29;20059;-76
2023/08/02 18:53:03;;;;;;;7.90;4.30;;;;;;;16.69;91.23;98011.94;10124035;29;20064;-76
2023/08/02 18:58:06;;;;;;;10.25;4.00;;;;;;;16.64;90.68;98022.59;10138678;29;20059;-76
2023/08/02 19:03:09;;;;;;;8.82;4.30;;;;;;;16.54;91.31;98043.97;10142657;29;20059;-77
2023/08/02 19:08:13;;;;;;;7.90;4.18;;;;;;;16.42;91.06;98051.94;10141479;29;20048;-75
2023/08/02 19:13:17;;;;;;;10.52;4.70;;;;;;;16.45;90.71;98065.03;10136407;29;20075;-75
2023/08/02 19:18:20;;;;;;;10.43;4.93;;;;;;;16.20;91.58;98074.97;10138487;29;20050;-76
2023/08/02 19:23:24;;;;;;;8.50;4.80;;;;;;;16.06;92.02;98074.22;10138707;29;20096;-77
2023/08/02 19:28:27;;;;;;;10.35;4.10;;;;;;;16.30;90.33;98067.25;10126785;29;20048;-77
2023/08/02 19:33:32;;;;;;;9.73;4.45;;;;;;;16.21;90.65;98082.91;10124066;29;20060;-78
2023/08/02 19:38:38;;;;;;;8.57;4.47;;;;;;;16.31;91.17;98087.84;10133965;29;20051;-76
2023/08/02 19:43:41;;;;;;;11.90;3.60;;;;;;;16.08;91.84;98099.22;10123031;29;20056;-76
2023/08/02 19:48:43;;;;;;;4.28;3.10;;;;;;;16.15;91.04;98108.97;10125482;29;20052;-77
2023/08/02 19:53:48;;;;;;;2.83;1.75;;;;;;;14.99;94.66;98119.59;10122541;29;20044;-76
2023/08/02 19:58:55;;;;;;;10.85;1.38;;;;;;;14.31;98.16;98141.25;10118969;29;20078;-76
2023/08/02 20:03:58;;;;;;;8.43;1.98;;;;;;;14.64;97.34;98133.28;10127137;29;20048;-77
2023/08/02 20:09:04;;;;;;;6.00;1.63;;;;;;;14.90;95.37;98118.16;10125096;29;20048;-77
2023/08/02 20:14:19;;;;;;;4.50;2.40;;;;;;;14.89;96.16;98132.69;10127747;29;20095;-76
2023/08/02 20:19:25;;;;;;;6.72;2.55;;;;;;;15.14;96.30;98146.41;10124780;29;20104;-76
2023/08/02 20:24:29;;;;;;;5.68;3.17;;;;;;;15.29;95.36;98151.63;10126522;29;20044;-76
2023/08/02 20:29:32;;;;;;;7.18;2.72;;;;;;;15.31;94.39;98158.50;10127909;29;20055;-76
2023/08/02 20:34:35;;;;;;;8.00;2.65;;;;;;;15.37;94.25;98164.97;10115872;29;21429;-76
2023/08/02 20:39:43;;;;;;;5.57;2.58;;;;;;;15.47;94.84;98162.69;10125170;29;20048;-77
2023/08/02 20:44:46;;;;;;;9.60;3.65;;;;;;;15.61;95.29;98158.91;10129760;29;20103;-76
2023/08/02 20:49:49;;;;;;;4.90;3.95;;;;;;;15.64;95.44;98150.34;10133656;29;20447;-76
2023/08/02 20:54:54;;;;;;;7.82;3.33;;;;;;;15.34;95.05;98166.22;10130400;29;20052;-76
2023/08/02 20:59:57;;;;;;;4.60;1.73;;;;;;;15.39;93.78;98166.41;10127798;29;20104;-76
2023/08/02 21:05:00;;;;;;;8.23;2.38;;;;;;;15.56;92.88;98169.53;10124664;29;20539;-77
2023/08/02 21:10:06;;;;;;;2.72;1.55;;;;;;;15.38;92.70;98169.31;10133842;29;20164;-77
2023/08/02 21:15:22;;;;;;;4.47;1.42;;;;;;;15.42;91.70;98168.69;10122497;29;20060;-76
2023/08/02 21:20:41;;;;;;;3.97;1.25;;;;;;;15.55;90.69;98175.97;10132936;29;20055;-76
2023/08/02 21:25:47;;;;;;;6.30;1.83;;;;;;;15.63;91.66;98174.91;10120712;29;20393;-76
2023/08/02 21:30:51;;;;;;;5.85;1.65;;;;;;;15.55;91.11;98184.09;10115578;29;20052;-76
2023/08/02 21:35:55;;;;;;;3.28;1.60;;;;;;;15.47;91.46;98177.03;10125083;29;20056;-76
2023/08/02 21:41:02;;;;;;;3.88;1.70;;;;;;;15.51;90.92;98174.72;10124315;29;20055;-76
2023/08/02 21:46:07;;;;;;;5.65;1.83;;;;;;;15.59;91.10;98182.63;10127091;29;20057;-76
2023/08/02 21:51:10;;;;;;;4.05;1.90;;;;;;;15.62;92.16;98168.66;10118711;29;20500;-77
2023/08/02 21:56:15;;;;;;;5.15;1.58;;;;;;;15.53;91.90;98163.72;10119271;29;20150;-76
2023/08/02 22:01:21;;;;;;;7.25;1.80;;;;;;;15.47;92.15;98168.09;10118852;29;20075;-76
2023/08/02 22:06:27;;;;;;;5.50;1.70;;;;;;;15.50;92.36;98169.53;10118246;29;20080;-77
2023/08/02 22:11:31;;;;;;;7.00;1.77;;;;;;;15.47;91.57;98171.63;10120914;29;20074;-76
2023/08/02 22:16:34;;;;;;;7.18;1.88;;;;;;;15.41;91.10;98166.19;10114104;29;20116;-77
2023/08/02 22:21:37;;;;;;;3.75;1.52;;;;;;;15.51;89.74;98171.19;10114760;29;20072;-76
2023/08/02 22:26:42;;;;;;;6.88;1.27;;;;;;;15.51;89.22;98166.59;10115168;29;20063;-77
2023/08/02 22:31:44;;;;;;;3.05;1.38;;;;;;;15.47;89.08;98171.63;10104988;29;20076;-77
2023/08/02 22:36:48;;;;;;;6.07;1.73;;;;;;;15.67;88.44;98162.63;10121302;29;20059;-77
2023/08/02 22:41:52;;;;;;;6.38;1.63;;;;;;;15.51;88.32;98154.97;10113389;29;20179;-76
2023/08/02 22:46:55;;;;;;;4.78;1.25;;;;;;;15.53;88.10;98150.19;10114924;29;20064;-76
2023/08/02 22:51:58;;;;;;;6.72;1.85;;;;;;;15.59;87.72;98158.28;10119696;29;20092;-78
2023/08/02 22:57:04;;;;;;;9.65;1.55;;;;;;;15.25;89.39;98183.66;10122394;29;20503;-77
2023/08/02 23:02:09;;;;;;;5.90;1.20;;;;;;;14.48;95.94;98191.22;10121254;29;20060;-78
2023/08/02 23:07:21;;;;;;;9.65;2.30;;;;;;;14.59;97.48;98157.41;10139058;29;20060;-77
2023/08/02 23:12:27;;;;;;;6.60;1.95;;;;;;;14.65;96.86;98134.97;10136061;29;20059;-78
2023/08/02 23:17:30;;;;;;;4.68;1.75;;;;;;;14.82;96.25;98138.09;10126324;29;20076;-75
2023/08/02 23:22:34;;;;;;;7.80;2.35;;;;;;;14.95;95.35;98127.31;10124336;29;20059;-78
2023/08/02 23:27:48;;;;;;;9.10;2.15;;;;;;;15.05;95.20;98122.28;10116339;29;20589;-77
2023/08/02 23:32:50;;;;;;;4.47;1.80;;;;;;;14.99;95.14;98130.41;10119147;29;20048;-76
2023/08/02 23:37:53;;;;;;;6.10;1.63;;;;;;;14.93;94.97;98118.56;10127787;29;20207;-76